Time;durP1;ratioP1;P1;durP2;ratioP2;P2;SDS_P1;SDS_P2;PMS_P1;PMS_P2;Temp;Humidity;BMP_temperature;BMP_pressure;BME280_temperature;BME280_humidity;BME280_pressure;Samples;Min_cycle;Max_cycle;Signal;HPM_P1;HPM_P2
2022/09/06 00:02:18;;;;;;;8.75;3.67;;;15.40;99.90;;;;;;4970915;28;20070;-47
2022/09/06 00:04:45;;;;;;;6.72;3.83;;;15.40;99.90;;;;;;4970666;28;20054;-48
2022/09/06 00:07:11;;;;;;;7.93;4.35;;;15.40;99.90;;;;;;4972108;28;20098;-48
2022/09/06 00:09:38;;;;;;;6.05;3.78;;;15.40;99.90;;;;;;4972332;28;20062;-47
2022/09/06 00:12:05;;;;;;;6.20;3.88;;;15.40;99.90;;;;;;4971771;28;20039;-47
2022/09/06 00:14:32;;;;;;;5.22;3.97;;;15.40;99.90;;;;;;4975763;28;20045;-47
2022/09/06 00:16:59;;;;;;;5.57;4.00;;;15.30;99.90;;;;;;4992008;28;20562;-47
2022/09/06 00:23:48;;;;;;;6.32;4.18;;;15.20;99.90;;;;;;5018065;28;19917;-46
2022/09/06 00:26:54;;;;;;;4.80;3.92;;;15.20;99.90;;;;;;4964773;28;20049;-46
2022/09/06 00:29:21;;;;;;;10.23;4.38;;;15.10;99.90;;;;;;5025772;28;20042;-46
2022/09/06 00:31:48;;;;;;;7.63;4.20;;;15.10;99.90;;;;;;5032217;28;20049;-46
2022/09/06 00:34:14;;;;;;;7.40;4.03;;;15.10;99.90;;;;;;5030489;28;20080;-46
2022/09/06 00:36:41;;;;;;;7.65;4.07;;;15.10;99.90;;;;;;5030727;28;20069;-46
2022/09/06 00:39:08;;;;;;;10.25;4.80;;;15.10;99.90;;;;;;5030977;28;20045;-46
2022/09/06 00:41:34;;;;;;;6.43;4.38;;;14.90;99.90;;;;;;5018113;28;20041;-46
2022/09/06 00:44:01;;;;;;;7.63;4.43;;;15.00;99.90;;;;;;5027456;28;20044;-46
2022/09/06 00:46:30;;;;;;;8.90;4.28;;;15.00;99.90;;;;;;5031504;28;20069;-46
2022/09/06 00:49:30;;;;;;;6.65;4.07;;;15.00;99.90;;;;;;5026137;28;20049;-46
2022/09/06 00:52:01;;;;;;;5.03;3.70;;;15.00;99.90;;;;;;5024927;28;20037;-46
2022/09/06 00:54:28;;;;;;;8.43;3.92;;;15.00;99.90;;;;;;5030494;28;20052;-47
2022/09/06 00:56:56;;;;;;;5.57;4.22;;;15.00;99.90;;;;;;5030997;28;20457;-47
2022/09/06 00:59:29;;;;;;;6.80;4.78;;;14.90;99.90;;;;;;5030044;28;20041;-46
2022/09/06 01:01:57;;;;;;;8.27;4.20;;;14.90;99.90;;;;;;5029339;28;20064;-46
2022/09/06 01:04:25;;;;;;;7.22;4.22;;;15.00;99.90;;;;;;5029975;28;20496;-46
2022/09/06 01:07:15;;;;;;;11.15;4.43;;;15.00;99.90;;;;;;5030668;28;20057;-46
2022/09/06 01:09:59;;;;;;;6.13;4.35;;;15.00;99.90;;;;;;5029280;28;20054;-46
2022/09/06 01:12:54;;;;;;;6.35;4.28;;;15.00;99.90;;;;;;5030844;28;20525;-46
2022/09/06 01:15:44;;;;;;;12.10;4.38;;;14.90;99.90;;;;;;5030030;28;20042;-46
2022/09/06 01:18:27;;;;;;;7.03;4.05;;;14.90;99.90;;;;;;5029695;28;20092;-46
2022/09/06 01:21:06;;;;;;;5.35;4.43;;;14.80;99.90;;;;;;5030498;28;20103;-46
2022/09/06 01:24:00;;;;;;;8.38;4.60;;;14.70;99.90;;;;;;5030250;28;20041;-46
2022/09/06 01:27:05;;;;;;;11.60;4.68;;;14.60;99.90;;;;;;5030394;28;20520;-46
2022/09/06 01:29:55;;;;;;;8.52;4.80;;;14.50;99.90;;;;;;5022573;28;20041;-46
2022/09/06 01:32:54;;;;;;;8.57;4.20;;;14.50;99.90;;;;;;5017780;28;20520;-46
2022/09/06 01:35:44;;;;;;;6.20;3.83;;;14.50;99.90;;;;;;5033927;28;20482;-46
2022/09/06 01:38:13;;;;;;;7.20;4.00;;;14.50;99.90;;;;;;5031493;28;20490;-45
2022/09/06 01:40:40;;;;;;;5.30;4.03;;;14.50;99.90;;;;;;5033925;28;20512;-46
2022/09/06 01:43:09;;;;;;;6.88;4.78;;;14.50;99.90;;;;;;5032988;28;20037;-46
2022/09/06 01:45:55;;;;;;;4.95;3.97;;;14.50;99.90;;;;;;5033880;28;20690;-46
2022/09/06 01:48:46;;;;;;;5.45;4.05;;;14.50;99.90;;;;;;5033447;28;20073;-47
2022/09/06 01:51:37;;;;;;;5.45;4.30;;;14.50;99.90;;;;;;5016685;28;20049;-46
2022/09/06 01:54:42;;;;;;;6.15;4.03;;;14.40;99.90;;;;;;5033190;28;20053;-46
2022/09/06 01:57:36;;;;;;;8.13;4.13;;;14.30;99.90;;;;;;5033855;28;20049;-46
2022/09/06 02:00:10;;;;;;;8.95;5.60;;;14.30;99.90;;;;;;5029808;28;20041;-45
2022/09/06 02:03:00;;;;;;;7.78;4.43;;;14.30;99.90;;;;;;5028455;28;20072;-46
2022/09/06 02:05:44;;;;;;;5.80;3.55;;;14.30;99.90;;;;;;5033238;28;20056;-45
2022/09/06 02:08:32;;;;;;;8.80;4.25;;;14.30;99.90;;;;;;5014992;28;20429;-46
2022/09/06 02:11:06;;;;;;;7.25;4.35;;;14.30;99.90;;;;;;5033709;28;20049;-45
2022/09/06 02:13:57;;;;;;;9.18;5.38;;;14.40;99.90;;;;;;5025307;28;20045;-46
2022/09/06 02:16:26;;;;;;;9.30;5.47;;;14.50;99.90;;;;;;5033627;28;20045;-46
2022/09/06 02:18:59;;;;;;;7.57;3.58;;;14.50;99.90;;;;;;5032602;28;20045;-46
2022/09/06 02:21:33;;;;;;;8.77;3.88;;;14.50;99.90;;;;;;5049609;28;20536;-46
2022/09/06 02:24:04;;;;;;;6.82;4.00;;;14.40;99.90;;;;;;5032359;28;20049;-46
2022/09/06 02:26:36;;;;;;;5.43;4.10;;;14.30;99.90;;;;;;5033711;28;20049;-46
2022/09/06 02:29:03;;;;;;;6.35;4.40;;;14.20;99.90;;;;;;5032904;28;20049;-46
2022/09/06 02:31:38;;;;;;;5.75;4.40;;;14.20;99.90;;;;;;5033141;28;20057;-46
2022/09/06 02:34:06;;;;;;;9.45;4.93;;;14.10;99.90;;;;;;5032028;28;20037;-46
2022/09/06 02:36:36;;;;;;;7.00;4.90;;;14.10;99.90;;;;;;5025533;28;20033;-46
2022/09/06 02:39:04;;;;;;;11.43;4.70;;;14.20;99.90;;;;;;5032839;28;20410;-47
2022/09/06 02:41:32;;;;;;;10.40;5.47;;;14.10;99.90;;;;;;5031687;28;20087;-45
2022/09/06 02:43:58;;;;;;;7.22;4.57;;;14.00;99.90;;;;;;5031918;28;20123;-46
2022/09/06 02:46:25;;;;;;;7.00;4.82;;;14.00;99.90;;;;;;5032541;28;20033;-46
2022/09/06 02:48:52;;;;;;;8.43;4.82;;;14.00;99.90;;;;;;5029659;28;20045;-46
2022/09/06 02:51:19;;;;;;;8.18;5.10;;;14.00;99.90;;;;;;5031146;28;20074;-46
2022/09/06 02:53:46;;;;;;;6.85;5.03;;;14.00;99.90;;;;;;5032039;28;20050;-46
2022/09/06 02:56:13;;;;;;;7.97;4.28;;;14.10;99.90;;;;;;5032978;28;20053;-46
2022/09/06 02:58:39;;;;;;;8.13;5.10;;;14.10;99.90;;;;;;5031715;28;20048;-46
2022/09/06 03:01:06;;;;;;;6.18;3.97;;;14.10;99.90;;;;;;5032658;28;20501;-46
2022/09/06 03:03:33;;;;;;;9.45;3.92;;;14.00;99.90;;;;;;5031864;28;20053;-47
2022/09/06 03:06:00;;;;;;;6.47;4.57;;;13.80;99.90;;;;;;5032268;28;20048;-46
2022/09/06 03:08:32;;;;;;;5.70;4.50;;;13.70;99.90;;;;;;5030682;28;20399;-46
2022/09/06 03:10:59;;;;;;;8.35;4.35;;;13.60;99.90;;;;;;5032614;28;20417;-47
2022/09/06 03:13:26;;;;;;;6.55;4.32;;;13.60;99.90;;;;;;5031752;28;20045;-46
2022/09/06 03:15:55;;;;;;;6.18;4.35;;;13.70;99.90;;;;;;5031975;28;20418;-47
2022/09/06 03:18:27;;;;;;;7.35;4.57;;;13.80;99.90;;;;;;5025703;28;20421;-46
2022/09/06 03:20:55;;;;;;;9.05;5.18;;;13.80;99.90;;;;;;5032025;28;20077;-46
2022/09/06 03:23:24;;;;;;;8.00;4.82;;;13.90;99.90;;;;;;5032330;28;20041;-45
2022/09/06 03:25:51;;;;;;;6.45;4.32;;;13.90;99.90;;;;;;5031358;28;20041;-46
2022/09/06 03:28:19;;;;;;;6.03;4.28;;;14.00;99.90;;;;;;5031649;28;20042;-46
2022/09/06 03:30:47;;;;;;;11.88;4.63;;;14.00;99.90;;;;;;5029058;28;20442;-46
2022/09/06 03:33:14;;;;;;;7.20;4.40;;;14.10;99.90;;;;;;5017874;28;20055;-46
2022/09/06 03:35:56;;;;;;;5.28;3.90;;;14.10;99.90;;;;;;5028545;28;20037;-46
2022/09/06 03:38:25;;;;;;;6.03;3.78;;;14.20;99.90;;;;;;5012281;28;20038;-48
2022/09/06 03:40:52;;;;;;;5.30;3.50;;;14.20;99.90;;;;;;5026294;28;20041;-47
2022/09/06 03:43:20;;;;;;;7.05;3.97;;;14.20;99.90;;;;;;5022796;28;20045;-45
2022/09/06 03:45:48;;;;;;;6.57;4.00;;;14.20;99.90;;;;;;5025240;28;20053;-46
2022/09/06 03:48:17;;;;;;;8.07;4.60;;;14.20;99.90;;;;;;5027515;28;20113;-47
2022/09/06 03:50:45;;;;;;;10.35;4.05;;;14.30;99.90;;;;;;5023019;28;20041;-46
2022/09/06 03:53:12;;;;;;;8.32;4.43;;;14.20;99.90;;;;;;5024066;28;20092;-46
2022/09/06 03:55:39;;;;;;;9.88;4.63;;;14.20;99.90;;;;;;5017679;28;20038;-46
2022/09/06 03:58:06;;;;;;;6.55;4.70;;;14.20;99.90;;;;;;5026006;28;20046;-46
2022/09/06 04:00:33;;;;;;;8.15;4.95;;;14.20;99.90;;;;;;5014564;28;20033;-46
2022/09/06 04:03:00;;;;;;;7.93;4.85;;;14.20;99.90;;;;;;5042916;28;20088;-46
2022/09/06 04:05:27;;;;;;;7.53;5.03;;;14.20;99.90;;;;;;5044144;28;20769;-46
2022/09/06 04:07:54;;;;;;;5.40;4.15;;;14.20;99.90;;;;;;5030167;28;20557;-46
2022/09/06 04:10:21;;;;;;;4.53;3.88;;;14.30;99.90;;;;;;5030796;28;20052;-46
2022/09/06 04:12:47;;;;;;;8.50;4.68;;;14.30;99.90;;;;;;5028400;28;20045;-46
2022/09/06 04:15:14;;;;;;;5.55;3.83;;;14.30;99.90;;;;;;5023989;28;20089;-46
2022/09/06 04:17:45;;;;;;;6.10;4.32;;;14.40;99.90;;;;;;5027690;28;20046;-46
2022/09/06 04:20:13;;;;;;;6.70;4.35;;;14.30;99.90;;;;;;5027364;28;20056;-46
2022/09/06 04:22:41;;;;;;;9.98;4.53;;;14.30;99.90;;;;;;5026125;28;20076;-46
2022/09/06 04:25:08;;;;;;;;;;;14.30;99.90;;;;;;5029033;28;20038;-46
2022/09/06 04:27:35;;;;;;;6.30;3.85;;;14.30;99.90;;;;;;5024445;28;19925;-46
2022/09/06 04:30:01;;;;;;;6.50;3.83;;;14.30;99.90;;;;;;5030084;28;20104;-46
2022/09/06 04:32:28;;;;;;;5.60;4.30;;;14.20;99.90;;;;;;5029152;28;20046;-48
2022/09/06 04:34:55;;;;;;;5.95;4.50;;;14.10;99.90;;;;;;5025410;28;20037;-46
2022/09/06 04:37:21;;;;;;;6.70;4.15;;;14.10;99.90;;;;;;5022155;28;20045;-46
2022/09/06 04:39:48;;;;;;;8.73;4.90;;;14.10;99.90;;;;;;5020565;28;20037;-47
2022/09/06 04:42:15;;;;;;;8.43;4.20;;;14.10;99.90;;;;;;5008736;28;20493;-46
2022/09/06 04:44:42;;;;;;;6.10;4.57;;;14.10;99.90;;;;;;5027370;28;20492;-47
2022/09/06 04:47:14;;;;;;;6.15;4.22;;;14.10;99.90;;;;;;5023890;28;20748;-46
2022/09/06 04:49:41;;;;;;;10.30;5.20;;;14.10;99.90;;;;;;5023254;28;20045;-47
2022/09/06 04:52:08;;;;;;;10.07;6.50;;;14.10;99.90;;;;;;5028076;28;20482;-47
2022/09/06 04:54:35;;;;;;;;;;;14.20;99.90;;;;;;5030190;28;20045;-46
2022/09/06 04:57:02;;;;;;;8.05;4.60;;;14.30;99.90;;;;;;5029574;28;19928;-46
2022/09/06 04:59:29;;;;;;;;;;;14.40;99.90;;;;;;5029177;28;20053;-45
2022/09/06 05:01:56;;;;;;;8.60;4.90;;;14.40;99.90;;;;;;5028388;28;19928;-46
2022/09/06 05:04:23;;;;;;;6.65;4.70;;;14.40;99.90;;;;;;5028812;28;20048;-45
2022/09/06 05:06:59;;;;;;;6.43;4.57;;;14.50;99.90;;;;;;5018708;28;20049;-46
2022/09/06 05:09:26;;;;;;;10.27;4.88;;;14.50;99.90;;;;;;5020305;28;21970;-47
2022/09/06 05:11:53;;;;;;;10.45;5.22;;;14.50;99.90;;;;;;5024093;28;20534;-45
2022/09/06 05:14:20;;;;;;;11.45;5.28;;;14.60;99.90;;;;;;5025826;28;20745;-45
2022/09/06 05:16:47;;;;;;;6.75;4.60;;;14.70;99.90;;;;;;5022576;28;20494;-45
2022/09/06 05:19:14;;;;;;;6.80;5.13;;;14.70;99.90;;;;;;5022944;28;20059;-45
2022/09/06 05:21:41;;;;;;;9.00;5.20;;;14.80;99.90;;;;;;5032153;28;20049;-45
2022/09/06 05:24:08;;;;;;;9.63;4.90;;;14.70;99.90;;;;;;5032599;28;20041;-45
2022/09/06 05:26:34;;;;;;;12.73;4.75;;;14.80;99.90;;;;;;5028766;28;20037;-45
2022/09/06 05:29:01;;;;;;;6.47;4.28;;;14.80;99.90;;;;;;5045740;28;20041;-45
2022/09/06 05:31:33;;;;;;;12.38;5.15;;;14.70;99.90;;;;;;5029747;28;20053;-46
2022/09/06 05:34:00;;;;;;;7.65;4.95;;;14.70;99.90;;;;;;5033472;28;20108;-45
2022/09/06 05:36:28;;;;;;;10.88;5.95;;;14.70;99.90;;;;;;5033625;28;20057;-45
2022/09/06 05:38:55;;;;;;;8.35;5.35;;;14.60;99.90;;;;;;5032766;28;20036;-46
2022/09/06 05:41:23;;;;;;;9.60;6.80;;;14.60;99.90;;;;;;5029183;28;20486;-45
2022/09/06 05:43:50;;;;;;;8.48;5.68;;;14.60;99.90;;;;;;5033221;28;20041;-45
2022/09/06 05:46:16;;;;;;;8.23;5.72;;;14.60;99.90;;;;;;5032996;28;20053;-45
2022/09/06 05:48:50;;;;;;;9.18;5.88;;;14.70;99.90;;;;;;5033213;28;20490;-45
2022/09/06 05:51:16;;;;;;;9.38;6.22;;;14.70;99.90;;;;;;5032103;28;20117;-46
2022/09/06 05:53:44;;;;;;;10.02;5.53;;;14.80;99.90;;;;;;5033584;28;20509;-46
2022/09/06 05:56:13;;;;;;;10.13;5.18;;;14.90;99.90;;;;;;5017134;28;20042;-45
2022/09/06 05:58:40;;;;;;;11.82;4.60;;;14.90;99.90;;;;;;5032508;28;20034;-45
2022/09/06 06:01:21;;;;;;;11.02;5.72;;;14.90;99.90;;;;;;5033493;28;20433;-45
2022/09/06 06:03:53;;;;;;;10.27;4.75;;;15.10;99.90;;;;;;5033019;28;20041;-45
2022/09/06 06:06:21;;;;;;;9.73;4.75;;;15.20;99.90;;;;;;5033232;28;20049;-45
2022/09/06 06:08:48;;;;;;;8.43;4.68;;;15.20;99.90;;;;;;5033667;28;20499;-45
2022/09/06 06:11:15;;;;;;;8.95;4.93;;;15.20;99.90;;;;;;5033743;28;20045;-45
2022/09/06 06:13:43;;;;;;;9.57;4.82;;;15.30;99.90;;;;;;5028012;28;20053;-45
2022/09/06 06:16:12;;;;;;;5.88;4.70;;;15.30;99.90;;;;;;5033216;28;20553;-45
2022/09/06 06:18:40;;;;;;;6.18;4.35;;;15.40;99.90;;;;;;5032477;28;20051;-48
2022/09/06 06:21:18;;;;;;;7.25;4.53;;;15.40;99.90;;;;;;5028691;23;20457;-45
2022/09/06 06:23:45;;;;;;;;;;;15.40;99.90;;;;;;5012109;28;20100;-45
2022/09/06 06:26:12;;;;;;;9.13;4.72;;;15.40;99.90;;;;;;4996105;28;19921;-45
2022/09/06 06:28:40;;;;;;;7.95;5.32;;;15.40;99.90;;;;;;4994081;28;20104;-45
2022/09/06 06:31:09;;;;;;;6.55;4.70;;;15.40;99.90;;;;;;4992910;28;20042;-45
2022/09/06 06:33:36;;;;;;;6.28;4.70;;;15.50;99.90;;;;;;4993475;28;20047;-45
2022/09/06 06:36:17;;;;;;;10.85;4.60;;;15.60;99.90;;;;;;4993212;28;20042;-45
2022/09/06 06:38:45;;;;;;;6.10;4.32;;;15.60;99.90;;;;;;4992700;28;20042;-45
2022/09/06 06:41:14;;;;;;;8.23;4.75;;;15.70;99.90;;;;;;4993678;28;20050;-45
2022/09/06 06:43:41;;;;;;;6.85;4.10;;;15.60;99.90;;;;;;4992214;28;20046;-44
2022/09/06 06:46:13;;;;;;;9.27;4.20;;;15.60;99.90;;;;;;4992547;28;20046;-45
2022/09/06 06:48:42;;;;;;;7.25;4.40;;;15.50;99.90;;;;;;4988400;28;20443;-45
2022/09/06 06:51:11;;;;;;;7.93;5.30;;;15.60;99.90;;;;;;4993434;28;20042;-45
2022/09/06 06:53:37;;;;;;;8.05;4.47;;;15.60;99.90;;;;;;4992728;28;20514;-45
2022/09/06 06:56:15;;;;;;;7.75;4.40;;;15.60;99.90;;;;;;4992801;28;20159;-44
2022/09/06 06:58:43;;;;;;;10.45;4.63;;;15.60;99.90;;;;;;4981517;28;20046;-44
2022/09/06 07:01:10;;;;;;;7.30;5.13;;;15.50;99.90;;;;;;4990262;28;20061;-45
2022/09/06 07:03:37;;;;;;;7.20;4.90;;;15.50;99.90;;;;;;4992376;28;20050;-45
2022/09/06 07:06:04;;;;;;;10.93;5.28;;;15.50;99.90;;;;;;4993481;28;20062;-44
2022/09/06 07:08:39;;;;;;;7.45;4.97;;;15.50;99.90;;;;;;4991342;28;20396;-45
2022/09/06 07:11:07;;;;;;;;;;;15.50;99.90;;;;;;4993603;28;20062;-44
2022/09/06 07:13:36;;;;;;;7.38;4.70;;;15.60;99.90;;;;;;4992235;28;19929;-45
2022/09/06 07:16:06;;;;;;;;;;;15.70;99.90;;;;;;4976127;28;20050;-44
2022/09/06 07:18:34;;;;;;;7.40;5.07;;;15.80;99.90;;;;;;4991743;28;19977;-44
2022/09/06 07:21:00;;;;;;;;;;;15.90;99.90;;;;;;4993557;28;20054;-44
2022/09/06 07:23:47;;;;;;;5.43;4.30;;;16.00;99.90;;;;;;4992070;28;20719;-44
2022/09/06 07:26:30;;;;;;;7.10;4.30;;;16.10;99.90;;;;;;4992678;28;20326;-45
2022/09/06 07:28:59;;;;;;;6.93;4.43;;;16.30;99.90;;;;;;4991747;28;20050;-44
2022/09/06 07:31:27;;;;;;;6.88;4.65;;;16.30;99.90;;;;;;4992810;28;20057;-45
2022/09/06 07:34:14;;;;;;;7.35;4.30;;;16.50;99.90;;;;;;4988926;28;20388;-44
2022/09/06 07:36:41;;;;;;;8.23;4.53;;;16.50;99.90;;;;;;4992396;28;20048;-45
2022/09/06 07:39:08;;;;;;;10.27;5.72;;;16.70;99.90;;;;;;4992301;28;20451;-44
2022/09/06 07:41:34;;;;;;;9.27;5.05;;;16.80;99.90;;;;;;4991481;28;20046;-44
2022/09/06 07:44:02;;;;;;;8.65;4.53;;;16.80;99.90;;;;;;4991967;28;20041;-45
2022/09/06 07:46:28;;;;;;;18.80;5.90;;;17.00;99.90;;;;;;4992082;28;20391;-45
2022/09/06 07:48:55;;;;;;;10.00;5.95;;;17.00;99.90;;;;;;4990310;28;20499;-45
2022/09/06 07:51:22;;;;;;;13.82;6.25;;;17.00;99.90;;;;;;4991112;28;20034;-45
2022/09/06 07:53:51;;;;;;;9.70;5.43;;;17.00;99.90;;;;;;4991681;28;20419;-45
2022/09/06 07:56:33;;;;;;;8.65;5.97;;;16.90;99.90;;;;;;4992523;28;20057;-44
2022/09/06 07:58:59;;;;;;;7.95;4.80;;;17.00;99.90;;;;;;4985082;28;20066;-45
2022/09/06 08:01:34;;;;;;;7.55;4.68;;;17.00;99.90;;;;;;4983137;28;20050;-45
2022/09/06 08:04:04;;;;;;;7.30;5.18;;;17.20;99.90;;;;;;4991328;28;20046;-45
2022/09/06 08:06:33;;;;;;;8.05;4.30;;;17.20;99.90;;;;;;4990397;28;20050;-45
2022/09/06 08:09:20;;;;;;;13.93;4.90;;;17.30;99.90;;;;;;4989166;28;20125;-45
2022/09/06 08:11:47;;;;;;;6.90;5.13;;;17.50;99.90;;;;;;4986055;28;20491;-45
2022/09/06 08:14:14;;;;;;;6.38;4.28;;;17.60;99.90;;;;;;4976649;28;20047;-45
2022/09/06 08:16:41;;;;;;;7.38;4.28;;;17.70;99.90;;;;;;4985774;28;20456;-45
2022/09/06 08:19:07;;;;;;;5.00;4.47;;;17.80;99.90;;;;;;4990144;28;20093;-45
2022/09/06 08:21:34;;;;;;;6.97;4.47;;;17.80;99.90;;;;;;4991563;28;20042;-45
2022/09/06 08:24:06;;;;;;;7.45;4.32;;;17.80;99.90;;;;;;4989782;28;20125;-45
2022/09/06 08:26:34;;;;;;;13.20;5.22;;;17.80;99.90;;;;;;4983893;28;20398;-46
2022/09/06 08:29:05;;;;;;;8.85;5.75;;;17.80;99.90;;;;;;4991592;28;20045;-45
2022/09/06 08:31:34;;;;;;;9.88;5.80;;;17.70;99.90;;;;;;4991625;28;20061;-45
2022/09/06 08:34:02;;;;;;;6.70;5.68;;;17.70;99.90;;;;;;4984496;28;20038;-45
2022/09/06 08:36:30;;;;;;;12.65;5.78;;;17.70;99.90;;;;;;4991781;28;20053;-45
2022/09/06 08:38:58;;;;;;;10.05;5.65;;;17.70;99.90;;;;;;4991340;28;20108;-45
2022/09/06 08:41:52;;;;;;;8.52;5.38;;;17.70;99.90;;;;;;4989647;28;20057;-45
2022/09/06 08:44:23;;;;;;;12.27;5.80;;;17.70;99.90;;;;;;4990370;28;20046;-45
2022/09/06 08:47:17;;;;;;;10.07;5.78;;;17.60;99.90;;;;;;4990673;28;20097;-45
2022/09/06 08:49:47;;;;;;;10.57;5.40;;;17.70;99.90;;;;;;4997922;28;20038;-45
2022/09/06 08:52:27;;;;;;;7.45;5.35;;;17.70;99.90;;;;;;4998112;28;20049;-45
2022/09/06 08:55:15;;;;;;;8.30;4.75;;;17.70;99.90;;;;;;4995791;28;20048;-45
2022/09/06 08:58:12;;;;;;;8.27;5.07;;;17.70;99.90;;;;;;4995846;28;20050;-45
2022/09/06 09:00:45;;;;;;;6.72;4.85;;;17.80;99.90;;;;;;4996761;28;20047;-45
2022/09/06 09:03:20;;;;;;;7.88;4.90;;;17.80;99.90;;;;;;4995927;28;20598;-45
2022/09/06 09:05:51;;;;;;;9.40;5.50;;;18.00;99.90;;;;;;4996717;28;20061;-45
2022/09/06 09:08:33;;;;;;;9.82;5.55;;;18.20;99.90;;;;;;4992473;28;20395;-45
2022/09/06 09:11:06;;;;;;;6.65;5.28;;;18.40;99.90;;;;;;4997734;28;20049;-45
2022/09/06 09:13:53;;;;;;;9.13;5.55;;;18.60;99.90;;;;;;4974930;28;20042;-45
2022/09/06 09:16:21;;;;;;;9.93;5.28;;;18.70;99.90;;;;;;4997865;28;20050;-46
2022/09/06 09:18:54;;;;;;;9.10;4.72;;;18.80;99.90;;;;;;4996814;28;20050;-45
2022/09/06 09:21:23;;;;;;;7.45;4.65;;;18.70;99.90;;;;;;4997472;28;20053;-45
2022/09/06 09:24:00;;;;;;;11.85;5.38;;;18.70;99.90;;;;;;5011467;28;20038;-45
2022/09/06 09:26:33;;;;;;;6.50;4.68;;;18.70;99.90;;;;;;5016721;28;20050;-45
2022/09/06 09:29:11;;;;;;;6.68;4.80;;;18.60;99.90;;;;;;5017110;28;20157;-45
2022/09/06 09:31:50;;;;;;;6.85;4.47;;;18.90;99.90;;;;;;5012827;28;20046;-45
2022/09/06 09:34:32;;;;;;;6.80;4.68;;;18.90;99.90;;;;;;4997351;28;20081;-45
2022/09/06 09:37:22;;;;;;;7.68;4.80;;;19.20;99.90;;;;;;4997552;28;20443;-45
2022/09/06 09:40:39;;;;;;;7.25;4.68;;;19.20;99.90;;;;;;4996213;28;20050;-45
2022/09/06 09:43:14;;;;;;;6.13;4.53;;;19.20;99.90;;;;;;4991414;28;20526;-45
2022/09/06 09:45:42;;;;;;;6.40;4.47;;;19.30;99.90;;;;;;4997157;28;20484;-45
2022/09/06 09:48:22;;;;;;;7.80;4.32;;;19.40;99.90;;;;;;4997647;28;20054;-45
2022/09/06 09:50:49;;;;;;;7.25;4.70;;;19.70;99.90;;;;;;4996291;28;20038;-45
2022/09/06 09:53:20;;;;;;;6.68;4.40;;;19.80;99.90;;;;;;4994542;28;20499;-47
2022/09/06 09:55:53;;;;;;;6.72;4.90;;;20.00;99.90;;;;;;4994098;28;20045;-45
2022/09/06 09:58:29;;;;;;;8.45;4.30;;;20.20;99.90;;;;;;4993898;28;20054;-45
2022/09/06 10:01:10;;;;;;;7.05;4.13;;;20.40;99.90;;;;;;4979077;28;20046;-46
2022/09/06 10:03:38;;;;;;;9.63;4.65;;;20.50;99.90;;;;;;4998929;28;20080;-45
2022/09/06 10:06:25;;;;;;;6.22;3.83;;;20.50;99.90;;;;;;5013969;28;20453;-45
2022/09/06 10:09:32;;;;;;;10.60;5.10;;;20.40;99.90;;;;;;5009468;28;20039;-46
2022/09/06 10:11:59;;;;;;;9.52;4.80;;;20.30;99.90;;;;;;4987279;28;20061;-45
2022/09/06 10:14:31;;;;;;;9.32;4.93;;;20.20;99.90;;;;;;4974736;28;20053;-45
2022/09/06 10:16:59;;;;;;;8.55;5.15;;;20.20;99.90;;;;;;4974494;28;20051;-45
2022/09/06 10:19:44;;;;;;;8.55;4.60;;;20.40;99.90;;;;;;4993305;28;20061;-46
2022/09/06 10:22:34;;;;;;;7.35;5.03;;;20.50;99.90;;;;;;4993876;28;20054;-45
2022/09/06 10:25:19;;;;;;;7.90;5.68;;;20.40;99.90;;;;;;4993281;28;20061;-45
2022/09/06 10:28:23;;;;;;;9.57;5.05;;;20.50;99.90;;;;;;4986553;28;20049;-45
2022/09/06 10:31:21;;;;;;;6.03;5.13;;;20.80;99.90;;;;;;4988968;28;20269;-45
2022/09/06 10:34:09;;;;;;;7.05;4.70;;;20.80;99.90;;;;;;4993066;28;20509;-46
2022/09/06 10:36:39;;;;;;;7.28;4.80;;;20.90;99.90;;;;;;4992123;28;20049;-45
2022/09/06 10:39:36;;;;;;;7.53;4.97;;;20.90;99.90;;;;;;4993196;28;20499;-45
2022/09/06 10:42:34;;;;;;;7.93;4.38;;;21.00;99.90;;;;;;4990747;28;20046;-45
2022/09/06 10:45:18;;;;;;;7.38;4.22;;;21.20;99.90;;;;;;4989182;28;20102;-45
2022/09/06 10:48:01;;;;;;;5.72;4.03;;;21.20;99.90;;;;;;4993482;28;20042;-45
2022/09/06 10:50:50;;;;;;;4.82;4.32;;;21.30;99.90;;;;;;4992706;28;20042;-45
2022/09/06 10:53:38;;;;;;;7.15;4.45;;;21.20;99.90;;;;;;4991510;28;20507;-46
2022/09/06 10:56:11;;;;;;;7.20;4.18;;;21.10;99.90;;;;;;4993261;28;20061;-45
2022/09/06 10:59:23;;;;;;;5.82;4.05;;;21.00;99.90;;;;;;4993318;28;20054;-45
2022/09/06 11:02:17;;;;;;;7.65;4.13;;;21.00;99.90;;;;;;4991849;28;20049;-45
2022/09/06 11:04:47;;;;;;;8.40;4.00;;;21.40;99.90;;;;;;4992527;28;20046;-45
2022/09/06 11:07:42;;;;;;;8.40;4.35;;;21.70;99.90;;;;;;4991057;28;20081;-45
2022/09/06 11:10:31;;;;;;;8.63;4.13;;;21.90;99.90;;;;;;4992821;28;20097;-45
2022/09/06 11:13:09;;;;;;;5.35;4.20;;;21.90;99.90;;;;;;4992054;28;20053;-45
2022/09/06 11:16:07;;;;;;;5.40;4.45;;;22.10;99.90;;;;;;4993109;28;20053;-45
2022/09/06 11:18:53;;;;;;;6.85;3.80;;;22.40;99.90;;;;;;4991699;28;20057;-45
2022/09/06 11:21:26;;;;;;;5.35;4.13;;;22.70;99.90;;;;;;4992685;28;20042;-45
2022/09/06 11:24:02;;;;;;;5.15;3.88;;;22.80;99.90;;;;;;4992475;28;20050;-45
2022/09/06 11:26:31;;;;;;;4.78;3.95;;;22.60;99.90;;;;;;4992599;28;20045;-45
2022/09/06 11:29:04;;;;;;;9.30;4.03;;;22.30;99.90;;;;;;4992263;28;20045;-45
2022/09/06 11:31:34;;;;;;;4.32;3.60;;;22.20;99.90;;;;;;4992719;28;20058;-45
2022/09/06 11:34:32;;;;;;;5.63;3.40;;;22.10;99.90;;;;;;4990217;28;20054;-45
2022/09/06 11:37:02;;;;;;;6.05;3.58;;;22.10;99.90;;;;;;4992458;28;20046;-45
2022/09/06 11:39:37;;;;;;;8.90;3.85;;;22.30;99.90;;;;;;4992585;28;20395;-45
2022/09/06 11:42:47;;;;;;;4.38;3.90;;;22.40;99.90;;;;;;4991850;28;20078;-45
2022/09/06 11:45:40;;;;;;;4.68;3.60;;;23.20;99.90;;;;;;4981367;28;20069;-45
2022/09/06 11:48:33;;;;;;;7.07;3.85;;;23.70;99.90;;;;;;4982486;28;20062;-49
2022/09/06 11:51:05;;;;;;;4.80;3.33;;;23.70;99.90;;;;;;4991103;28;20053;-45
2022/09/06 11:53:47;;;;;;;4.90;3.60;;;23.80;99.90;;;;;;4991906;28;20487;-46
2022/09/06 11:56:52;;;;;;;5.40;3.88;;;23.90;99.90;;;;;;4975053;28;20038;-45
2022/09/06 11:59:40;;;;;;;3.83;3.45;;;24.20;99.90;;;;;;4964555;28;20062;-45
2022/09/06 12:02:27;;;;;;;;;;;24.20;99.90;;;;;;4992692;28;20038;-45
2022/09/06 12:04:59;;;;;;;5.40;3.70;;;24.30;99.90;;;;;;4991626;28;20333;-45
2022/09/06 12:07:28;;;;;;;4.63;3.60;;;24.10;99.90;;;;;;4992095;28;20047;-45
2022/09/06 12:09:55;;;;;;;5.05;3.60;;;24.20;99.90;;;;;;4987496;28;20049;-45
2022/09/06 12:12:39;;;;;;;6.07;3.22;;;24.40;99.90;;;;;;4991792;28;20038;-45
2022/09/06 12:15:43;;;;;;;5.05;3.30;;;24.60;99.90;;;;;;4991947;28;20035;-46
2022/09/06 12:18:45;;;;;;;4.00;3.25;;;25.00;99.90;;;;;;4949947;28;20109;-46
2022/09/06 12:21:34;;;;;;;4.85;3.38;;;25.00;99.90;;;;;;5031952;23;20049;-48
2022/09/06 12:24:02;;;;;;;4.78;3.25;;;24.90;99.90;;;;;;5041619;28;20037;-51
2022/09/06 12:26:50;;;;;;;4.80;3.53;;;24.90;99.90;;;;;;5044201;28;20060;-51
2022/09/06 12:29:24;;;;;;;4.43;3.30;;;25.10;99.90;;;;;;5036036;28;20056;-48
2022/09/06 12:31:55;;;;;;;4.22;3.63;;;25.40;99.90;;;;;;5050621;28;20524;-48
2022/09/06 12:34:27;;;;;;;7.15;3.70;;;25.60;99.90;;;;;;5051008;28;20051;-48
2022/09/06 12:37:06;;;;;;;4.57;3.60;;;25.90;99.90;;;;;;5050414;28;20059;-52
2022/09/06 12:39:33;;;;;;;5.65;3.97;;;25.70;99.90;;;;;;5050754;28;20124;-49
2022/09/06 12:42:04;;;;;;;4.65;4.28;;;25.50;99.90;;;;;;5028197;28;20053;-51
2022/09/06 12:44:37;;;;;;;5.70;4.15;;;25.80;99.90;;;;;;5048728;28;20385;-49
2022/09/06 12:47:09;;;;;;;7.35;3.45;;;26.00;99.90;;;;;;5041137;28;20044;-48
2022/09/06 12:49:36;;;;;;;4.22;3.83;;;26.00;99.90;;;;;;5044947;28;20048;-50
2022/09/06 12:52:10;;;;;;;3.85;2.90;;;25.70;99.90;;;;;;5045772;28;20052;-48
2022/09/06 12:54:48;;;;;;;5.07;3.17;;;25.70;99.90;;;;;;5041846;28;20036;-48
2022/09/06 12:57:20;;;;;;;4.30;3.47;;;25.60;99.90;;;;;;5050245;28;20045;-48
2022/09/06 12:59:52;;;;;;;4.70;3.15;;;25.40;99.90;;;;;;5046600;28;20040;-49
2022/09/06 13:02:25;;;;;;;3.58;3.20;;;25.40;99.90;;;;;;5049129;28;20064;-49
2022/09/06 13:05:01;;;;;;;8.63;3.30;;;25.40;99.90;;;;;;5048769;28;20037;-49
2022/09/06 13:07:30;;;;;;;6.07;3.45;;;25.40;99.90;;;;;;5033101;28;20049;-50
2022/09/06 13:10:01;;;;;;;5.68;4.10;;;25.40;99.90;;;;;;5045276;28;20040;-51
2022/09/06 13:12:33;;;;;;;6.35;3.80;;;25.30;99.90;;;;;;5050726;28;20203;-48
2022/09/06 13:15:10;;;;;;;4.40;3.30;;;25.30;99.90;;;;;;5045855;28;20553;-49
2022/09/06 13:17:37;;;;;;;3.80;3.43;;;25.30;99.90;;;;;;5046493;28;20063;-48
2022/09/06 13:20:10;;;;;;;;;;;25.30;99.90;;;;;;5049120;28;20052;-48
2022/09/06 13:22:46;;;;;;;3.70;3.35;;;25.40;99.90;;;;;;5050668;28;20431;-49
2022/09/06 13:25:24;;;;;;;4.72;3.58;;;25.60;99.90;;;;;;5044637;28;20536;-48
2022/09/06 13:27:56;;;;;;;;;;;25.70;99.90;;;;;;5052595;28;20083;-52
2022/09/06 13:30:40;;;;;;;4.22;3.55;;;25.80;99.90;;;;;;5053602;28;19928;-48